Time;durP1;ratioP1;P1;durP2;ratioP2;P2;SDS_P1;SDS_P2;PMS_P1;PMS_P2;Temp;Humidity;BMP_temperature;BMP_pressure;BME280_temperature;BME280_humidity;BME280_pressure;Samples;Min_cycle;Max_cycle;Signal;HPM_P1;HPM_P2
2022/07/31 00:02:10;;;;;;;3.23;3.03;;;19.80;99.90;;;;;;4979784;28;20656;-52
2022/07/31 00:04:37;;;;;;;3.20;3.00;;;19.80;99.90;;;;;;4971396;28;20227;-53
2022/07/31 00:07:04;;;;;;;2.87;2.77;;;19.80;99.90;;;;;;4979600;28;20199;-53
2022/07/31 00:09:31;;;;;;;2.27;2.20;;;19.80;99.90;;;;;;4983248;28;20724;-53
2022/07/31 00:11:58;;;;;;;3.43;3.20;;;19.70;99.90;;;;;;4970995;28;20204;-53
2022/07/31 00:14:25;;;;;;;2.70;2.60;;;19.70;99.90;;;;;;4976495;28;20667;-53
2022/07/31 00:16:52;;;;;;;3.10;2.90;;;19.70;99.90;;;;;;4983594;28;20192;-53
2022/07/31 00:19:21;;;;;;;2.50;2.40;;;19.70;99.90;;;;;;4980180;28;20224;-52
2022/07/31 00:21:48;;;;;;;3.33;3.17;;;19.70;99.90;;;;;;4977930;28;20753;-53
2022/07/31 00:24:15;;;;;;;3.07;2.87;;;19.70;99.90;;;;;;4978785;28;20217;-53
2022/07/31 00:26:42;;;;;;;3.00;2.90;;;19.60;99.90;;;;;;4977255;28;20203;-53
2022/07/31 00:29:09;;;;;;;3.47;3.27;;;19.60;99.90;;;;;;4977085;28;20224;-53
2022/07/31 00:31:36;;;;;;;3.60;3.33;;;19.50;99.90;;;;;;4983385;28;20196;-53
2022/07/31 00:34:03;;;;;;;3.20;3.00;;;19.50;99.90;;;;;;4975415;28;20263;-53
2022/07/31 00:36:32;;;;;;;8.67;3.70;;;19.50;99.90;;;;;;4972773;28;20200;-53
2022/07/31 00:38:59;;;;;;;3.40;3.30;;;19.50;99.90;;;;;;4984962;28;20652;-53
2022/07/31 00:41:36;;;;;;;2.53;2.33;;;19.50;99.90;;;;;;4975314;28;20204;-53
2022/07/31 00:44:03;;;;;;;2.80;2.70;;;19.40;99.90;;;;;;4977161;28;20279;-53
2022/07/31 00:46:30;;;;;;;3.27;3.17;;;19.30;99.90;;;;;;4979964;28;20259;-53
2022/07/31 00:48:57;;;;;;;3.23;3.13;;;19.30;99.90;;;;;;4980256;28;20223;-52
2022/07/31 00:51:24;;;;;;;2.60;2.40;;;19.30;99.90;;;;;;4973926;28;20200;-53
2022/07/31 00:53:53;;;;;;;3.47;3.23;;;19.30;99.90;;;;;;4979510;28;20236;-53
2022/07/31 00:56:20;;;;;;;3.60;2.63;;;19.20;99.90;;;;;;4973712;28;20215;-53
2022/07/31 00:58:47;;;;;;;3.77;3.00;;;19.20;99.90;;;;;;4978250;28;20575;-53
2022/07/31 01:01:14;;;;;;;4.63;3.00;;;19.30;99.90;;;;;;4982266;28;20278;-53
2022/07/31 01:03:41;;;;;;;2.33;2.23;;;19.20;99.90;;;;;;4987559;28;20661;-53
2022/07/31 01:06:08;;;;;;;2.50;2.50;;;19.20;99.90;;;;;;4986295;28;20223;-52
2022/07/31 01:08:35;;;;;;;2.70;2.60;;;19.20;99.90;;;;;;4978827;28;20220;-52
2022/07/31 01:11:11;;;;;;;2.20;2.20;;;19.20;99.90;;;;;;4988527;28;20195;-52
2022/07/31 01:13:47;;;;;;;3.03;2.83;;;19.20;99.90;;;;;;4984877;28;20213;-53
2022/07/31 01:16:15;;;;;;;2.87;2.77;;;19.20;99.90;;;;;;4989001;28;20207;-52
2022/07/31 01:18:43;;;;;;;2.73;2.63;;;19.20;99.90;;;;;;4988485;28;20228;-52
2022/07/31 01:21:16;;;;;;;2.43;2.33;;;19.10;99.90;;;;;;4986091;28;20195;-52
2022/07/31 01:24:12;;;;;;;2.90;2.80;;;19.10;99.90;;;;;;4972116;28;20283;-52
2022/07/31 01:26:49;;;;;;;2.80;2.80;;;19.10;99.90;;;;;;4985013;28;20254;-53
2022/07/31 01:29:28;;;;;;;4.23;3.83;;;19.00;99.90;;;;;;4984388;28;20259;-52
2022/07/31 01:32:02;;;;;;;2.93;2.67;;;19.00;99.90;;;;;;4975570;28;20299;-52
2022/07/31 01:34:37;;;;;;;2.97;2.80;;;18.90;99.90;;;;;;4983884;28;20204;-52
2022/07/31 01:37:10;;;;;;;3.00;2.90;;;18.80;99.90;;;;;;4994797;28;20290;-52
2022/07/31 01:39:42;;;;;;;3.10;3.00;;;18.80;99.90;;;;;;4986350;28;20256;-53
2022/07/31 01:42:13;;;;;;;2.87;2.67;;;18.80;99.90;;;;;;4980836;28;20196;-52
2022/07/31 01:44:45;;;;;;;3.60;3.40;;;18.70;99.90;;;;;;4980703;28;20217;-53
2022/07/31 01:47:15;;;;;;;3.90;2.97;;;18.70;99.90;;;;;;4976545;28;20208;-53
2022/07/31 01:49:43;;;;;;;2.77;2.67;;;18.60;99.90;;;;;;4974203;28;20231;-52
2022/07/31 01:52:11;;;;;;;3.07;2.97;;;18.60;99.90;;;;;;4972512;28;20200;-52
2022/07/31 01:54:39;;;;;;;3.10;2.83;;;18.50;99.90;;;;;;4982190;28;20212;-53
2022/07/31 01:57:08;;;;;;;2.83;2.73;;;18.50;99.90;;;;;;4972601;28;20670;-53
2022/07/31 01:59:37;;;;;;;3.93;2.90;;;18.50;99.90;;;;;;4981386;28;20282;-53
2022/07/31 02:02:06;;;;;;;3.00;2.80;;;18.50;99.90;;;;;;4986055;28;20203;-52
2022/07/31 02:04:34;;;;;;;4.73;3.00;;;18.50;99.90;;;;;;4969479;28;20322;-53
2022/07/31 02:07:04;;;;;;;2.67;2.47;;;18.50;99.90;;;;;;4977027;28;20212;-52
2022/07/31 02:09:33;;;;;;;2.77;2.67;;;18.50;99.90;;;;;;4971114;28;20356;-53
2022/07/31 02:12:00;;;;;;;3.23;2.93;;;18.50;99.90;;;;;;4972476;28;20208;-53
2022/07/31 02:14:28;;;;;;;2.83;2.60;;;18.50;99.90;;;;;;4973669;28;20205;-53
2022/07/31 02:16:56;;;;;;;2.67;2.57;;;18.50;99.90;;;;;;4993626;28;20701;-53
2022/07/31 02:19:25;;;;;;;3.03;2.83;;;18.50;99.90;;;;;;4985088;28;20304;-53
2022/07/31 02:21:52;;;;;;;3.13;3.03;;;18.60;99.90;;;;;;4972100;28;20215;-53
2022/07/31 02:24:19;;;;;;;2.70;2.60;;;18.70;99.90;;;;;;4972777;28;20247;-52
2022/07/31 02:26:47;;;;;;;3.20;3.00;;;18.80;99.90;;;;;;4983940;28;20709;-53
2022/07/31 02:29:16;;;;;;;3.33;2.70;;;18.80;99.90;;;;;;4977513;28;20260;-52
2022/07/31 02:31:45;;;;;;;4.10;3.80;;;18.80;99.90;;;;;;4982037;28;20299;-52
2022/07/31 02:34:13;;;;;;;3.80;3.50;;;18.70;99.90;;;;;;4973877;28;20592;-52
2022/07/31 02:36:42;;;;;;;3.40;3.10;;;18.70;99.90;;;;;;4983773;28;20258;-53
2022/07/31 02:39:11;;;;;;;3.47;3.27;;;18.60;99.90;;;;;;4968462;28;20235;-53
2022/07/31 02:41:40;;;;;;;2.90;2.80;;;18.60;99.90;;;;;;4981694;28;20204;-53
2022/07/31 02:44:09;;;;;;;2.53;2.33;;;18.60;99.90;;;;;;4978843;28;20211;-52
2022/07/31 02:46:37;;;;;;;2.80;2.70;;;18.60;99.90;;;;;;4975334;28;20574;-53
2022/07/31 02:49:04;;;;;;;3.13;2.87;;;18.60;99.90;;;;;;4992847;28;20290;-53
2022/07/31 02:51:32;;;;;;;3.10;2.90;;;18.60;99.90;;;;;;4993340;28;20246;-52
2022/07/31 02:54:00;;;;;;;3.73;2.50;;;18.60;99.90;;;;;;4971148;28;20212;-52
2022/07/31 02:56:29;;;;;;;2.80;2.70;;;18.60;99.90;;;;;;4988633;28;20191;-52
2022/07/31 02:58:56;;;;;;;3.43;3.23;;;18.60;99.90;;;;;;4973053;28;20236;-52
2022/07/31 03:01:23;;;;;;;2.70;2.70;;;18.60;99.90;;;;;;4977946;28;20663;-52
2022/07/31 03:03:50;;;;;;;3.43;2.70;;;18.60;99.90;;;;;;4964060;28;20255;-53
2022/07/31 03:06:18;;;;;;;2.67;2.57;;;18.60;99.90;;;;;;4981134;28;20705;-53
2022/07/31 03:08:48;;;;;;;2.40;2.23;;;18.60;99.90;;;;;;4984556;28;20231;-52
2022/07/31 03:11:17;;;;;;;2.87;2.67;;;18.60;99.90;;;;;;4975456;28;20277;-53
2022/07/31 03:13:47;;;;;;;3.00;2.67;;;18.60;99.90;;;;;;4982786;28;20211;-53
2022/07/31 03:16:15;;;;;;;3.13;2.93;;;18.60;99.90;;;;;;4981354;28;20220;-52
2022/07/31 03:18:46;;;;;;;3.13;2.40;;;18.60;99.90;;;;;;4970863;28;20283;-52
2022/07/31 03:21:14;;;;;;;3.13;2.80;;;18.70;99.90;;;;;;4971627;28;20204;-52
2022/07/31 03:23:44;;;;;;;2.30;2.20;;;18.70;99.90;;;;;;4979276;28;20207;-52
2022/07/31 03:26:12;;;;;;;2.17;2.13;;;18.70;99.90;;;;;;4973058;28;20225;-52
2022/07/31 03:28:41;;;;;;;2.73;2.60;;;18.70;99.90;;;;;;4982624;28;20232;-52
2022/07/31 03:31:09;;;;;;;2.30;2.30;;;18.80;99.90;;;;;;4976516;28;20197;-53
2022/07/31 03:33:36;;;;;;;2.70;2.60;;;18.80;99.90;;;;;;4971866;28;20218;-52
2022/07/31 03:36:03;;;;;;;5.17;4.23;;;18.90;99.90;;;;;;4971778;28;20200;-53
2022/07/31 03:38:30;;;;;;;2.63;2.53;;;18.90;99.90;;;;;;4987511;28;20219;-53
2022/07/31 03:40:57;;;;;;;5.13;2.27;;;18.90;99.90;;;;;;4971186;28;20216;-54
2022/07/31 03:43:25;;;;;;;2.90;2.70;;;18.90;99.90;;;;;;4968969;28;20205;-52
2022/07/31 03:45:54;;;;;;;3.27;2.30;;;18.80;99.90;;;;;;4969823;28;20224;-52
2022/07/31 03:48:21;;;;;;;3.90;2.50;;;18.70;99.90;;;;;;4979037;28;20274;-53
2022/07/31 03:50:48;;;;;;;2.90;2.50;;;18.80;99.90;;;;;;4976021;28;20565;-52
2022/07/31 03:53:16;;;;;;;2.27;2.10;;;18.70;99.90;;;;;;4971945;28;20227;-52
2022/07/31 03:55:43;;;;;;;3.10;2.90;;;18.70;99.90;;;;;;4982506;28;20693;-52
2022/07/31 03:58:10;;;;;;;1.83;1.83;;;18.70;99.90;;;;;;4974312;28;20224;-52
2022/07/31 04:00:38;;;;;;;3.40;2.60;;;18.70;99.90;;;;;;4972272;28;20200;-53
2022/07/31 04:03:08;;;;;;;3.23;3.03;;;18.70;99.90;;;;;;4977367;28;20204;-52
2022/07/31 04:05:35;;;;;;;2.20;2.13;;;18.70;99.90;;;;;;4972097;28;20720;-52
2022/07/31 04:08:03;;;;;;;2.77;2.67;;;18.70;99.90;;;;;;4977626;28;20216;-52
2022/07/31 04:10:30;;;;;;;3.60;2.90;;;18.60;99.90;;;;;;4988535;28;20212;-52
2022/07/31 04:12:57;;;;;;;3.73;3.53;;;18.70;99.90;;;;;;4981574;28;20219;-53
2022/07/31 04:15:24;;;;;;;3.00;2.80;;;18.70;99.90;;;;;;4980357;28;20609;-53
2022/07/31 04:17:51;;;;;;;3.17;2.97;;;18.60;99.90;;;;;;4975599;28;20229;-53
2022/07/31 04:20:20;;;;;;;3.33;3.23;;;18.60;99.90;;;;;;4975176;28;20196;-52
2022/07/31 04:22:47;;;;;;;2.97;2.77;;;18.60;99.90;;;;;;4974409;28;20696;-53
2022/07/31 04:25:15;;;;;;;2.83;2.70;;;18.60;99.90;;;;;;4981180;28;20247;-52
2022/07/31 04:27:42;;;;;;;2.30;2.20;;;18.70;99.90;;;;;;4964802;28;20236;-53
2022/07/31 04:30:10;;;;;;;3.07;2.77;;;18.70;99.90;;;;;;4966866;28;20197;-53
2022/07/31 04:32:38;;;;;;;2.57;2.40;;;18.70;99.90;;;;;;4965564;28;20212;-52
2022/07/31 04:35:06;;;;;;;2.80;2.60;;;18.70;99.90;;;;;;4959443;28;20193;-53
2022/07/31 04:37:34;;;;;;;3.60;3.37;;;18.70;99.90;;;;;;4976292;28;20197;-53
2022/07/31 04:40:01;;;;;;;2.67;2.47;;;18.70;99.90;;;;;;4958026;28;20200;-52
2022/07/31 04:42:29;;;;;;;2.80;2.60;;;18.70;99.90;;;;;;4972420;28;20221;-52
2022/07/31 04:44:56;;;;;;;2.50;2.30;;;18.70;99.90;;;;;;4968490;28;20201;-52
2022/07/31 04:47:23;;;;;;;2.83;2.63;;;18.70;99.90;;;;;;4969185;28;20579;-52
2022/07/31 04:49:50;;;;;;;2.33;2.23;;;18.70;99.90;;;;;;4969040;28;20200;-53
2022/07/31 04:52:17;;;;;;;2.77;2.57;;;18.70;99.90;;;;;;4959907;28;20201;-53
2022/07/31 04:54:45;;;;;;;2.50;2.40;;;18.70;99.90;;;;;;4974464;28;20253;-53
2022/07/31 04:57:12;;;;;;;2.17;2.07;;;18.80;99.90;;;;;;4969271;28;20197;-52
2022/07/31 04:59:39;;;;;;;2.73;2.63;;;18.80;99.90;;;;;;4973556;28;20225;-53
2022/07/31 05:02:07;;;;;;;2.83;2.67;;;18.80;99.90;;;;;;4968757;28;20201;-52
2022/07/31 05:04:34;;;;;;;2.83;2.17;;;18.80;99.90;;;;;;4960977;28;20210;-52
2022/07/31 05:07:01;;;;;;;3.10;2.97;;;18.90;99.90;;;;;;4964953;28;20627;-53
2022/07/31 05:09:32;;;;;;;2.53;2.43;;;18.80;99.90;;;;;;4964831;28;20614;-53
2022/07/31 05:12:00;;;;;;;2.47;2.43;;;18.80;99.90;;;;;;4964900;28;20239;-53
2022/07/31 05:14:28;;;;;;;2.60;2.40;;;18.80;99.90;;;;;;4965892;28;20284;-53
2022/07/31 05:16:55;;;;;;;2.53;2.47;;;18.70;99.90;;;;;;4968616;28;20197;-52
2022/07/31 05:19:28;;;;;;;2.63;2.43;;;18.80;99.90;;;;;;4965859;28;20233;-53
2022/07/31 05:21:56;;;;;;;2.57;2.43;;;18.80;99.90;;;;;;4972636;28;20687;-52
2022/07/31 05:24:23;;;;;;;2.47;2.40;;;18.70;99.90;;;;;;4967370;28;20292;-52
2022/07/31 05:26:50;;;;;;;2.20;2.20;;;18.80;99.90;;;;;;4957671;28;20719;-53
2022/07/31 05:29:19;;;;;;;3.03;2.00;;;18.80;99.90;;;;;;4956584;28;20292;-52
2022/07/31 05:31:46;;;;;;;3.13;2.93;;;18.80;99.90;;;;;;4969003;28;20200;-53
2022/07/31 05:34:13;;;;;;;2.63;2.60;;;18.80;99.90;;;;;;4972105;28;20197;-53
2022/07/31 05:36:40;;;;;;;2.03;2.03;;;18.90;99.90;;;;;;4966184;28;20203;-53
2022/07/31 05:39:08;;;;;;;4.00;2.70;;;19.00;99.90;;;;;;4973336;28;20263;-52
2022/07/31 05:41:35;;;;;;;3.87;2.70;;;19.10;99.90;;;;;;4962424;28;20259;-52
2022/07/31 05:44:02;;;;;;;2.03;2.00;;;19.20;99.90;;;;;;4971167;28;20260;-52
2022/07/31 05:46:31;;;;;;;2.67;2.53;;;20.00;99.90;;;;;;4966914;28;20252;-52
2022/07/31 05:48:58;;;;;;;2.90;2.70;;;20.80;99.90;;;;;;4972556;28;20220;-52
2022/07/31 05:51:25;;;;;;;5.47;1.90;;;21.60;99.90;;;;;;4958317;28;20566;-52
2022/07/31 05:53:52;;;;;;;1.70;1.70;;;22.10;99.90;;;;;;4972369;28;20205;-52
2022/07/31 05:56:19;;;;;;;1.60;1.50;;;22.90;99.90;;;;;;4961255;28;20705;-53
2022/07/31 05:58:49;;;;;;;2.13;1.93;;;23.30;99.90;;;;;;4957520;28;20260;-52
2022/07/31 06:01:16;;;;;;;1.70;1.70;;;23.10;99.90;;;;;;4965007;28;20201;-52
2022/07/31 06:03:45;;;;;;;2.03;2.03;;;22.70;99.90;;;;;;4968265;28;20213;-55
2022/07/31 06:06:12;;;;;;;2.20;2.10;;;23.10;99.90;;;;;;4968114;28;20216;-53
2022/07/31 06:08:39;;;;;;;3.30;1.87;;;23.50;99.90;;;;;;4963488;28;20221;-53
2022/07/31 06:11:06;;;;;;;2.03;1.93;;;24.00;99.90;;;;;;4955957;28;20197;-52
2022/07/31 06:13:33;;;;;;;2.13;2.13;;;24.80;99.90;;;;;;4966316;28;20204;-52
2022/07/31 06:16:00;;;;;;;1.70;1.70;;;24.60;99.90;;;;;;4977668;28;20628;-52
2022/07/31 06:18:27;;;;;;;1.30;1.30;;;24.80;99.90;;;;;;4969688;28;20224;-52
2022/07/31 06:20:56;;;;;;;1.63;1.63;;;25.60;99.90;;;;;;4985138;28;20192;-54
2022/07/31 06:23:25;;;;;;;1.73;1.63;;;26.00;99.90;;;;;;4983422;28;20205;-53
2022/07/31 06:25:52;;;;;;;2.57;2.03;;;27.00;99.90;;;;;;4974033;28;20220;-53
2022/07/31 06:28:19;;;;;;;2.23;1.50;;;27.20;99.90;;;;;;4973106;28;20241;-53
2022/07/31 06:30:46;;;;;;;1.65;1.60;;;27.70;99.90;;;;;;4988755;28;20212;-53
2022/07/31 06:33:13;;;;;;;1.90;1.57;;;28.10;99.90;;;;;;4982333;28;20206;-55
2022/07/31 06:35:40;;;;;;;1.67;1.58;;;28.30;99.90;;;;;;4971910;28;20262;-52
2022/07/31 06:38:08;;;;;;;1.70;1.60;;;28.70;99.90;;;;;;4987470;28;20277;-53
2022/07/31 06:40:35;;;;;;;1.85;1.50;;;29.20;99.90;;;;;;4993134;28;20235;-53
2022/07/31 06:43:03;;;;;;;1.42;1.42;;;29.50;99.90;;;;;;4973868;28;20256;-55
2022/07/31 06:45:30;;;;;;;1.70;1.60;;;29.50;99.90;;;;;;4972227;28;20259;-55
2022/07/31 06:47:57;;;;;;;1.73;1.63;;;29.80;99.90;;;;;;4979892;28;20235;-53
2022/07/31 06:50:24;;;;;;;1.77;1.77;;;30.10;99.90;;;;;;4968266;28;20217;-53
2022/07/31 06:52:51;;;;;;;1.70;1.60;;;30.40;99.90;;;;;;4962969;28;20200;-55
2022/07/31 06:55:19;;;;;;;1.27;1.20;;;30.80;99.90;;;;;;4966921;28;20204;-55
2022/07/31 06:57:46;;;;;;;3.05;1.92;;;30.80;99.90;;;;;;4970522;28;20570;-53
2022/07/31 07:00:14;;;;;;;1.15;1.15;;;30.90;99.90;;;;;;4985252;28;20652;-56
2022/07/31 07:02:42;;;;;;;1.50;1.50;;;30.40;99.90;;;;;;4970286;28;20737;-53
2022/07/31 07:05:09;;;;;;;2.17;1.88;;;31.00;99.90;;;;;;4971794;28;20300;-55
2022/07/31 07:07:36;;;;;;;1.67;1.52;;;30.60;99.90;;;;;;4979544;28;20215;-53
2022/07/31 07:10:04;;;;;;;1.52;1.50;;;30.30;99.90;;;;;;4969886;28;20200;-55
2022/07/31 07:12:33;;;;;;;1.17;1.13;;;30.40;99.90;;;;;;4973207;28;20208;-53
2022/07/31 07:15:00;;;;;;;2.80;1.95;;;30.30;99.90;;;;;;4968236;28;20248;-54
2022/07/31 07:17:27;;;;;;;1.52;1.52;;;30.20;99.90;;;;;;4980677;28;20282;-55
2022/07/31 07:19:54;;;;;;;1.88;1.65;;;29.30;99.90;;;;;;4980979;28;20208;-53
2022/07/31 07:22:21;;;;;;;1.27;1.27;;;29.00;99.90;;;;;;4974249;28;20800;-55
2022/07/31 07:24:48;;;;;;;1.60;1.45;;;28.20;99.90;;;;;;4983105;28;20204;-55
2022/07/31 07:27:15;;;;;;;1.83;1.73;;;28.20;99.90;;;;;;4978254;28;20620;-55
2022/07/31 07:29:43;;;;;;;1.83;1.83;;;28.90;99.90;;;;;;4971095;28;20236;-55
2022/07/31 07:32:12;;;;;;;1.38;1.38;;;29.30;99.90;;;;;;4969089;28;20215;-55
2022/07/31 07:34:39;;;;;;;1.60;1.50;;;30.10;99.90;;;;;;4965694;28;20308;-53
2022/07/31 07:37:06;;;;;;;2.20;2.00;;;30.10;99.90;;;;;;4977013;28;20201;-55
2022/07/31 07:39:33;;;;;;;1.58;1.48;;;30.20;99.90;;;;;;4968472;28;20275;-55
2022/07/31 07:42:00;;;;;;;1.60;1.60;;;30.30;99.90;;;;;;4962998;28;20204;-55
2022/07/31 07:44:27;;;;;;;1.33;1.33;;;30.90;99.90;;;;;;4969914;28;20200;-55
2022/07/31 07:46:56;;;;;;;1.73;1.67;;;31.40;99.90;;;;;;4964440;28;20274;-55
2022/07/31 07:49:23;;;;;;;1.45;1.45;;;31.70;99.00;;;;;;4974558;28;20745;-55
2022/07/31 07:51:50;;;;;;;2.22;2.03;;;31.80;99.90;;;;;;4979544;28;20204;-55
2022/07/31 07:54:17;;;;;;;1.77;1.67;;;32.20;98.00;;;;;;4975215;28;20208;-55
2022/07/31 07:56:44;;;;;;;1.92;1.77;;;32.60;99.70;;;;;;4974772;28;20207;-55
2022/07/31 07:59:12;;;;;;;1.52;1.42;;;32.50;99.20;;;;;;4975783;28;20227;-54
2022/07/31 08:01:39;;;;;;;1.52;1.33;;;32.50;98.50;;;;;;4970734;28;20208;-53
2022/07/31 08:04:07;;;;;;;1.75;1.65;;;32.40;97.60;;;;;;4977843;28;20205;-54
2022/07/31 08:06:34;;;;;;;1.35;1.35;;;32.70;96.60;;;;;;4973194;28;20224;-54
2022/07/31 08:09:01;;;;;;;1.50;1.38;;;32.60;98.30;;;;;;4968409;28;20220;-55
2022/07/31 08:11:28;;;;;;;1.42;1.42;;;32.80;97.80;;;;;;4974383;28;20204;-56
2022/07/31 08:13:55;;;;;;;2.20;1.75;;;33.00;95.60;;;;;;4977476;28;20204;-55
2022/07/31 08:16:23;;;;;;;2.25;1.50;;;33.30;96.40;;;;;;4976496;28;20263;-55
2022/07/31 08:18:50;;;;;;;1.70;1.42;;;32.80;97.90;;;;;;4962583;28;20237;-54
2022/07/31 08:21:19;;;;;;;1.25;1.25;;;33.10;97.20;;;;;;4975735;28;20210;-54
2022/07/31 08:23:46;;;;;;;1.52;1.52;;;33.30;97.30;;;;;;4966569;28;20743;-53
2022/07/31 08:26:13;;;;;;;2.25;1.67;;;33.50;97.30;;;;;;4965015;28;20204;-54
2022/07/31 08:28:40;;;;;;;2.67;2.17;;;33.50;95.50;;;;;;4973731;28;20726;-54
2022/07/31 08:31:07;;;;;;;1.45;1.45;;;33.40;95.80;;;;;;4976389;28;20204;-55
2022/07/31 08:33:34;;;;;;;1.45;1.45;;;33.40;96.30;;;;;;4972047;28;20204;-55
2022/07/31 08:36:03;;;;;;;2.38;2.20;;;33.40;95.00;;;;;;4967302;28;20251;-55
2022/07/31 08:38:31;;;;;;;1.90;1.80;;;33.40;95.30;;;;;;4979766;28;20261;-55
2022/07/31 08:40:58;;;;;;;2.03;1.92;;;33.30;97.10;;;;;;4979253;28;20205;-55
2022/07/31 08:43:26;;;;;;;1.75;1.65;;;33.50;95.40;;;;;;4972935;28;20206;-55
2022/07/31 08:45:54;;;;;;;1.67;1.50;;;33.80;96.60;;;;;;4978352;28;20216;-55
2022/07/31 08:48:24;;;;;;;1.65;1.52;;;33.50;96.40;;;;;;4980665;28;20255;-55
2022/07/31 08:50:53;;;;;;;2.08;1.98;;;32.40;96.20;;;;;;4952481;29;20214;-55
2022/07/31 08:53:22;;;;;;;3.17;2.17;;;30.90;97.00;;;;;;4970254;28;20636;-55
2022/07/31 08:55:51;;;;;;;1.80;1.80;;;30.20;98.00;;;;;;4971939;28;20214;-55
2022/07/31 08:58:19;;;;;;;2.40;2.20;;;29.70;99.00;;;;;;4975699;28;20224;-55
2022/07/31 09:00:46;;;;;;;2.15;2.15;;;29.30;99.90;;;;;;4981515;28;20206;-55
2022/07/31 09:03:14;;;;;;;1.52;1.52;;;29.50;99.90;;;;;;4973951;28;20259;-55
2022/07/31 09:05:41;;;;;;;1.55;1.50;;;29.70;99.90;;;;;;4965953;28;20614;-55
2022/07/31 09:08:08;;;;;;;2.15;2.05;;;30.00;99.90;;;;;;4975489;28;20232;-55
2022/07/31 09:10:36;;;;;;;1.90;1.80;;;30.10;97.90;;;;;;4966836;28;20259;-55
2022/07/31 09:13:13;;;;;;;2.28;2.08;;;30.20;98.00;;;;;;4969136;28;20208;-55
2022/07/31 09:15:41;;;;;;;1.60;1.50;;;30.50;99.30;;;;;;4969103;28;20582;-55
2022/07/31 09:18:17;;;;;;;2.67;1.95;;;30.80;98.00;;;;;;4959089;28;20212;-55
2022/07/31 09:20:55;;;;;;;2.67;1.17;;;31.50;97.20;;;;;;4982811;28;20265;-55
2022/07/31 09:23:23;;;;;;;1.58;1.58;;;31.90;97.70;;;;;;4978922;28;20211;-55
2022/07/31 09:25:54;;;;;;;1.83;1.58;;;32.40;96.10;;;;;;4967869;28;20200;-53
2022/07/31 09:28:32;;;;;;;3.20;2.10;;;32.80;97.70;;;;;;4965598;28;20220;-53
2022/07/31 09:31:00;;;;;;;1.85;1.75;;;33.00;98.40;;;;;;4968177;28;20204;-55
2022/07/31 09:33:28;;;;;;;2.35;2.25;;;33.20;95.60;;;;;;4970523;28;20201;-55
2022/07/31 09:35:56;;;;;;;1.73;1.70;;;32.70;95.10;;;;;;4973198;28;20570;-55
2022/07/31 09:38:31;;;;;;;2.15;2.05;;;32.10;97.70;;;;;;4958742;28;20722;-55
2022/07/31 09:40:58;;;;;;;1.50;1.50;;;31.50;97.70;;;;;;4960888;28;20210;-55
2022/07/31 09:43:28;;;;;;;1.77;1.67;;;31.50;96.20;;;;;;4969820;28;20208;-55
2022/07/31 09:45:59;;;;;;;3.05;1.90;;;32.40;96.90;;;;;;4969872;28;20299;-55
2022/07/31 09:48:26;;;;;;;1.75;1.75;;;32.90;95.00;;;;;;4969556;28;20284;-55
2022/07/31 09:50:54;;;;;;;1.83;1.65;;;32.70;92.90;;;;;;4956503;28;20243;-55
2022/07/31 09:53:21;;;;;;;1.83;1.73;;;32.70;95.90;;;;;;4965851;28;20205;-55
2022/07/31 09:55:52;;;;;;;1.80;1.70;;;32.40;97.60;;;;;;4968469;28;20205;-55
2022/07/31 09:58:19;;;;;;;2.30;2.20;;;31.40;97.50;;;;;;4960667;28;20220;-53
2022/07/31 10:00:50;;;;;;;1.88;1.77;;;31.40;95.10;;;;;;4972365;28;20204;-53
2022/07/31 10:03:18;;;;;;;2.00;1.90;;;31.10;95.50;;;;;;4971372;28;20239;-53
2022/07/31 10:05:46;;;;;;;3.30;1.92;;;31.10;96.60;;;;;;4974143;28;20630;-53
2022/07/31 10:08:16;;;;;;;2.40;2.30;;;31.80;95.50;;;;;;4974468;28;20220;-53
2022/07/31 10:10:44;;;;;;;1.40;1.40;;;32.30;98.20;;;;;;4973395;28;20667;-54
2022/07/31 10:13:15;;;;;;;2.33;2.13;;;32.80;94.80;;;;;;4985428;28;20278;-54
2022/07/31 10:15:45;;;;;;;1.90;1.90;;;32.70;94.60;;;;;;4966018;28;20223;-55
2022/07/31 10:18:17;;;;;;;2.08;2.08;;;33.00;95.80;;;;;;4975881;28;20356;-54
2022/07/31 10:20:51;;;;;;;1.70;1.63;;;32.90;92.90;;;;;;4983988;28;20744;-54
2022/07/31 10:23:22;;;;;;;1.98;1.80;;;33.00;94.20;;;;;;4969626;28;20250;-53
2022/07/31 10:25:54;;;;;;;2.10;2.10;;;33.20;93.40;;;;;;4979516;28;20270;-54
2022/07/31 10:28:22;;;;;;;1.52;1.50;;;32.80;94.50;;;;;;4970333;28;20228;-54
2022/07/31 10:30:50;;;;;;;1.80;1.52;;;32.30;92.80;;;;;;4970331;28;20236;-54
2022/07/31 10:33:20;;;;;;;2.20;2.10;;;32.30;95.50;;;;;;4969359;28;20201;-54
2022/07/31 10:35:54;;;;;;;1.38;1.38;;;32.30;93.00;;;;;;4976375;28;20200;-53
2022/07/31 10:38:25;;;;;;;1.92;1.83;;;33.00;93.20;;;;;;4966922;28;20224;-53
2022/07/31 10:41:02;;;;;;;2.92;1.83;;;33.30;94.30;;;;;;4966454;28;20581;-54
2022/07/31 10:43:36;;;;;;;1.55;1.55;;;33.50;94.70;;;;;;4959788;28;20205;-54
2022/07/31 10:46:03;;;;;;;1.73;1.63;;;33.60;91.80;;;;;;4967476;28;20208;-53
2022/07/31 10:48:31;;;;;;;1.67;1.58;;;33.60;93.50;;;;;;4970971;28;20962;-55
2022/07/31 10:51:02;;;;;;;1.98;1.88;;;33.40;90.90;;;;;;4970548;28;20200;-56
2022/07/31 10:53:29;;;;;;;1.83;1.73;;;33.10;92.90;;;;;;4975957;28;20603;-55
2022/07/31 10:56:01;;;;;;;1.52;1.52;;;33.30;91.30;;;;;;4984965;28;20288;-53
2022/07/31 10:58:29;;;;;;;1.83;1.67;;;33.00;93.30;;;;;;4988324;28;20299;-54
2022/07/31 11:01:05;;;;;;;1.90;1.90;;;32.20;92.90;;;;;;4985745;28;20778;-53
2022/07/31 11:03:45;;;;;;;1.58;1.58;;;31.90;91.90;;;;;;4981068;28;20245;-54
2022/07/31 11:06:14;;;;;;;1.27;1.17;;;31.20;93.20;;;;;;4962438;28;20212;-54
2022/07/31 11:08:42;;;;;;;1.40;1.40;;;30.50;94.60;;;;;;4969314;28;20229;-54
2022/07/31 11:11:10;;;;;;;1.88;1.75;;;29.70;94.00;;;;;;4980113;28;20328;-56
2022/07/31 11:13:46;;;;;;;2.08;2.08;;;29.40;95.40;;;;;;4978459;28;20663;-53
2022/07/31 11:16:13;;;;;;;2.95;1.90;;;29.00;97.70;;;;;;4977767;28;20204;-55
2022/07/31 11:18:44;;;;;;;1.90;1.85;;;28.80;99.90;;;;;;4982156;28;20228;-55
2022/07/31 11:21:12;;;;;;;2.10;2.10;;;28.80;99.90;;;;;;4983642;28;20258;-55
2022/07/31 11:23:40;;;;;;;1.45;1.45;;;29.00;99.90;;;;;;4971456;28;20208;-56
2022/07/31 11:26:08;;;;;;;2.08;1.98;;;29.30;99.10;;;;;;4977415;28;20254;-55
2022/07/31 11:28:35;;;;;;;1.90;1.80;;;29.60;96.50;;;;;;4981833;28;20307;-55
2022/07/31 11:31:04;;;;;;;2.75;1.80;;;29.90;96.10;;;;;;4992058;28;20258;-55
2022/07/31 11:33:33;;;;;;;1.70;1.63;;;30.00;97.70;;;;;;4979235;28;20344;-55
2022/07/31 11:36:11;;;;;;;6.32;2.40;;;29.90;96.20;;;;;;4962540;28;20204;-55
2022/07/31 11:38:42;;;;;;;2.45;2.35;;;29.70;95.00;;;;;;4965405;28;20221;-55
2022/07/31 11:41:10;;;;;;;1.52;1.50;;;29.30;95.60;;;;;;4975611;28;20200;-55
2022/07/31 11:43:40;;;;;;;2.67;2.47;;;28.80;97.10;;;;;;4981246;28;20277;-55
2022/07/31 11:46:07;;;;;;;2.40;2.30;;;28.40;96.80;;;;;;4977649;28;20208;-55
2022/07/31 11:48:38;;;;;;;1.73;1.73;;;28.00;98.00;;;;;;4973692;28;20298;-55
2022/07/31 11:51:06;;;;;;;2.00;1.83;;;27.80;98.90;;;;;;4973750;28;20258;-55
2022/07/31 11:53:43;;;;;;;3.42;2.10;;;27.70;99.50;;;;;;4975346;28;20626;-55
2022/07/31 11:56:10;;;;;;;2.40;1.92;;;27.50;99.10;;;;;;4972164;28;20212;-55
2022/07/31 11:58:40;;;;;;;2.05;1.95;;;27.40;99.90;;;;;;4966055;28;20622;-55
2022/07/31 12:01:07;;;;;;;1.92;1.92;;;27.40;98.20;;;;;;4968134;28;20196;-55
2022/07/31 12:03:36;;;;;;;1.73;1.73;;;27.70;99.90;;;;;;4976990;28;20200;-54
2022/07/31 12:06:05;;;;;;;1.98;1.88;;;27.90;99.10;;;;;;4985674;28;20200;-55
2022/07/31 12:08:34;;;;;;;3.42;2.42;;;28.20;98.40;;;;;;4976685;28;20942;-55
2022/07/31 12:11:03;;;;;;;2.10;1.92;;;28.10;99.90;;;;;;4976022;28;20283;-54
2022/07/31 12:13:31;;;;;;;2.38;2.13;;;28.00;99.50;;;;;;4967322;28;20255;-54
2022/07/31 12:16:00;;;;;;;2.17;2.08;;;27.70;99.70;;;;;;4971016;28;20197;-53
2022/07/31 12:18:28;;;;;;;1.88;1.88;;;27.50;99.90;;;;;;4963934;28;20268;-53
2022/07/31 12:20:57;;;;;;;1.92;1.83;;;27.40;99.90;;;;;;4966383;28;20208;-54
2022/07/31 12:23:25;;;;;;;2.40;2.17;;;27.30;99.90;;;;;;4968203;28;20780;-54
2022/07/31 12:25:53;;;;;;;2.17;2.03;;;27.20;99.90;;;;;;4963850;28;20200;-54
2022/07/31 12:28:20;;;;;;;3.25;2.15;;;27.20;99.90;;;;;;4969556;28;20228;-54
2022/07/31 12:30:58;;;;;;;1.95;1.85;;;27.20;99.90;;;;;;4970163;28;20647;-53
2022/07/31 12:33:27;;;;;;;1.70;1.70;;;27.30;99.90;;;;;;4970368;28;20697;-54
2022/07/31 12:35:54;;;;;;;2.10;2.00;;;27.60;99.90;;;;;;4969892;28;20235;-54
2022/07/31 12:38:26;;;;;;;1.65;1.55;;;27.80;99.90;;;;;;4965031;28;20622;-54
2022/07/31 12:41:04;;;;;;;2.58;2.28;;;27.80;99.30;;;;;;4969309;28;20234;-56
2022/07/31 12:43:31;;;;;;;2.42;2.35;;;27.80;99.20;;;;;;4962960;28;20201;-55
2022/07/31 12:46:01;;;;;;;1.73;1.63;;;27.70;99.40;;;;;;4967757;28;20612;-55
2022/07/31 12:48:28;;;;;;;1.60;1.50;;;27.60;99.90;;;;;;4965979;28;20221;-55
2022/07/31 12:50:55;;;;;;;2.45;2.15;;;27.60;99.90;;;;;;4966801;28;20200;-55
2022/07/31 12:53:22;;;;;;;1.95;1.80;;;27.80;99.90;;;;;;4963792;28;20197;-55
2022/07/31 12:55:49;;;;;;;2.83;2.28;;;27.90;99.60;;;;;;4966153;28;20208;-55